sensor_id;sensor_type;location;lat;lon;timestamp;pressure;altitude;pressure_sealevel;temperature;humidity
48874;BME280;66155;46.204;5.220;2023-05-02T00:04:00;98950.72;;;11.83;68.00
48874;BME280;66155;46.204;5.220;2023-05-02T00:09:00;98945.97;;;11.80;68.28
48874;BME280;66155;46.204;5.220;2023-05-02T00:14:00;98941.69;;;11.69;68.54
48874;BME280;66155;46.204;5.220;2023-05-02T00:19:01;98943.16;;;11.59;70.08
48874;BME280;66155;46.204;5.220;2023-05-02T00:24:01;98940.31;;;11.61;69.18
48874;BME280;66155;46.204;5.220;2023-05-02T00:29:02;98924.00;;;11.76;69.78
48874;BME280;66155;46.204;5.220;2023-05-02T00:34:02;98924.09;;;11.86;68.80
48874;BME280;66155;46.204;5.220;2023-05-02T00:39:04;98917.69;;;11.72;69.50
48874;BME280;66155;46.204;5.220;2023-05-02T00:44:04;98924.91;;;11.59;69.46
48874;BME280;66155;46.204;5.220;2023-05-02T00:49:04;98919.03;;;11.47;70.06
48874;BME280;66155;46.204;5.220;2023-05-02T00:54:05;98930.41;;;11.36;70.78
48874;BME280;66155;46.204;5.220;2023-05-02T00:59:07;98922.00;;;11.29;70.80
48874;BME280;66155;46.204;5.220;2023-05-02T01:04:22;98932.50;;;11.34;70.70
48874;BME280;66155;46.204;5.220;2023-05-02T01:09:41;98920.16;;;11.29;71.10
48874;BME280;66155;46.204;5.220;2023-05-02T01:14:47;98928.75;;;11.25;70.63
48874;BME280;66155;46.204;5.220;2023-05-02T01:19:52;98928.69;;;11.19;70.78
48874;BME280;66155;46.204;5.220;2023-05-02T01:30:17;98931.41;;;11.08;71.03
48874;BME280;66155;46.204;5.220;2023-05-02T01:35:20;98933.72;;;11.04;71.73
48874;BME280;66155;46.204;5.220;2023-05-02T01:40:22;98939.34;;;10.96;71.95
48874;BME280;66155;46.204;5.220;2023-05-02T01:45:25;98931.41;;;10.86;72.64
48874;BME280;66155;46.204;5.220;2023-05-02T01:50:27;98943.88;;;10.83;72.93
48874;BME280;66155;46.204;5.220;2023-05-02T01:55:28;98942.72;;;10.74;73.65
48874;BME280;66155;46.204;5.220;2023-05-02T02:00:29;98959.66;;;10.72;74.14
48874;BME280;66155;46.204;5.220;2023-05-02T02:05:33;98953.47;;;10.78;73.67
48874;BME280;66155;46.204;5.220;2023-05-02T02:10:39;98953.22;;;10.79;73.29
48874;BME280;66155;46.204;5.220;2023-05-02T02:15:40;98957.59;;;10.74;73.14
48874;BME280;66155;46.204;5.220;2023-05-02T02:20:42;98956.56;;;10.75;73.17
48874;BME280;66155;46.204;5.220;2023-05-02T02:25:44;98942.53;;;10.59;74.04
48874;BME280;66155;46.204;5.220;2023-05-02T02:30:45;98949.53;;;10.58;73.72
48874;BME280;66155;46.204;5.220;2023-05-02T02:35:51;98949.31;;;10.60;73.46
48874;BME280;66155;46.204;5.220;2023-05-02T02:41:17;98957.28;;;10.53;74.67
48874;BME280;66155;46.204;5.220;2023-05-02T02:46:29;98960.31;;;10.45;74.99
48874;BME280;66155;46.204;5.220;2023-05-02T02:51:47;98971.84;;;10.32;76.16
48874;BME280;66155;46.204;5.220;2023-05-02T02:56:57;98967.19;;;10.34;75.11
48874;BME280;66155;46.204;5.220;2023-05-02T03:02:08;98962.44;;;10.31;76.72
48874;BME280;66155;46.204;5.220;2023-05-02T03:07:09;98972.75;;;10.26;76.28
48874;BME280;66155;46.204;5.220;2023-05-02T03:12:10;98979.16;;;10.18;77.30
48874;BME280;66155;46.204;5.220;2023-05-02T03:17:10;98971.88;;;10.20;76.23
48874;BME280;66155;46.204;5.220;2023-05-02T03:22:10;98977.34;;;10.19;78.37
48874;BME280;66155;46.204;5.220;2023-05-02T03:27:11;98977.56;;;10.17;78.75
48874;BME280;66155;46.204;5.220;2023-05-02T03:32:11;98980.63;;;10.14;78.98
48874;BME280;66155;46.204;5.220;2023-05-02T03:37:12;98979.53;;;10.10;79.50
48874;BME280;66155;46.204;5.220;2023-05-02T03:42:12;98986.25;;;10.06;79.69
48874;BME280;66155;46.204;5.220;2023-05-02T03:47:12;99001.13;;;10.11;80.46
48874;BME280;66155;46.204;5.220;2023-05-02T03:52:13;98989.94;;;10.10;79.58
48874;BME280;66155;46.204;5.220;2023-05-02T03:57:14;98979.63;;;10.15;79.66
48874;BME280;66155;46.204;5.220;2023-05-02T04:02:14;98990.91;;;10.21;78.95
48874;BME280;66155;46.204;5.220;2023-05-02T04:07:15;98991.75;;;10.26;79.05
48874;BME280;66155;46.204;5.220;2023-05-02T04:12:19;99000.50;;;10.32;78.43
48874;BME280;66155;46.204;5.220;2023-05-02T04:17:20;99004.50;;;10.40;78.23
48874;BME280;66155;46.204;5.220;2023-05-02T04:22:20;99008.84;;;10.51;77.58
48874;BME280;66155;46.204;5.220;2023-05-02T04:27:20;99023.31;;;10.59;77.41
48874;BME280;66155;46.204;5.220;2023-05-02T04:32:21;99013.34;;;10.56;77.45
48874;BME280;66155;46.204;5.220;2023-05-02T04:37:21;99027.16;;;10.56;77.84
48874;BME280;66155;46.204;5.220;2023-05-02T04:42:22;99027.50;;;10.43;78.33
48874;BME280;66155;46.204;5.220;2023-05-02T04:47:23;99040.75;;;10.41;78.32
48874;BME280;66155;46.204;5.220;2023-05-02T04:52:23;99047.53;;;10.42;77.70
48874;BME280;66155;46.204;5.220;2023-05-02T04:57:24;99044.22;;;10.47;77.17
48874;BME280;66155;46.204;5.220;2023-05-02T05:02:24;99059.38;;;10.50;77.17
48874;BME280;66155;46.204;5.220;2023-05-02T05:07:27;99071.03;;;10.31;78.09
48874;BME280;66155;46.204;5.220;2023-05-02T05:12:28;99072.72;;;10.25;77.95
48874;BME280;66155;46.204;5.220;2023-05-02T05:17:28;99074.78;;;10.23;77.80
48874;BME280;66155;46.204;5.220;2023-05-02T05:22:28;99081.81;;;10.22;78.56
48874;BME280;66155;46.204;5.220;2023-05-02T05:27:29;99090.06;;;10.19;79.04
48874;BME280;66155;46.204;5.220;2023-05-02T05:32:29;99085.50;;;10.26;78.28
48874;BME280;66155;46.204;5.220;2023-05-02T05:37:30;99087.88;;;10.28;78.42
48874;BME280;66155;46.204;5.220;2023-05-02T05:42:30;99091.03;;;10.42;78.18
48874;BME280;66155;46.204;5.220;2023-05-02T05:47:30;99113.28;;;10.50;78.13
48874;BME280;66155;46.204;5.220;2023-05-02T05:52:31;99111.94;;;10.64;77.13
48874;BME280;66155;46.204;5.220;2023-05-02T05:57:31;99116.63;;;10.79;76.92
48874;BME280;66155;46.204;5.220;2023-05-02T06:02:32;99121.22;;;10.89;77.05
48874;BME280;66155;46.204;5.220;2023-05-02T06:07:32;99129.09;;;10.94;76.72
48874;BME280;66155;46.204;5.220;2023-05-02T06:12:32;99132.19;;;10.91;77.45
48874;BME280;66155;46.204;5.220;2023-05-02T06:17:33;99137.56;;;11.01;76.83
48874;BME280;66155;46.204;5.220;2023-05-02T06:22:34;99142.31;;;11.04;76.94
48874;BME280;66155;46.204;5.220;2023-05-02T06:27:34;99142.31;;;11.04;77.33
48874;BME280;66155;46.204;5.220;2023-05-02T06:32:35;99148.38;;;11.27;76.69
48874;BME280;66155;46.204;5.220;2023-05-02T06:37:35;99148.47;;;11.32;76.03
48874;BME280;66155;46.204;5.220;2023-05-02T06:42:36;99152.16;;;11.36;76.20
48874;BME280;66155;46.204;5.220;2023-05-02T06:47:36;99145.78;;;11.27;76.59
48874;BME280;66155;46.204;5.220;2023-05-02T06:52:37;99144.50;;;11.29;76.48
48874;BME280;66155;46.204;5.220;2023-05-02T06:57:37;99147.28;;;11.61;75.81
48874;BME280;66155;46.204;5.220;2023-05-02T07:02:37;99150.84;;;11.94;74.47
48874;BME280;66155;46.204;5.220;2023-05-02T07:07:38;99148.28;;;12.00;74.32
48874;BME280;66155;46.204;5.220;2023-05-02T07:12:38;99139.16;;;12.02;74.09
48874;BME280;66155;46.204;5.220;2023-05-02T07:17:39;99141.31;;;12.32;73.51
48874;BME280;66155;46.204;5.220;2023-05-02T07:22:40;99145.69;;;12.54;72.16
48874;BME280;66155;46.204;5.220;2023-05-02T07:27:40;99135.13;;;12.71;71.64
48874;BME280;66155;46.204;5.220;2023-05-02T07:32:41;99142.59;;;12.89;71.25
48874;BME280;66155;46.204;5.220;2023-05-02T07:37:41;99131.88;;;12.91;70.47
48874;BME280;66155;46.204;5.220;2023-05-02T07:42:42;99138.13;;;12.85;69.38
48874;BME280;66155;46.204;5.220;2023-05-02T07:47:44;99131.50;;;12.72;69.66
48874;BME280;66155;46.204;5.220;2023-05-02T07:52:45;99132.22;;;12.67;70.60
48874;BME280;66155;46.204;5.220;2023-05-02T07:57:46;99133.78;;;12.68;69.90
48874;BME280;66155;46.204;5.220;2023-05-02T08:02:46;99126.22;;;12.67;69.98
48874;BME280;66155;46.204;5.220;2023-05-02T08:07:47;99116.75;;;12.61;69.92
48874;BME280;66155;46.204;5.220;2023-05-02T08:12:47;99127.78;;;12.68;69.93
48874;BME280;66155;46.204;5.220;2023-05-02T08:17:48;99137.88;;;12.86;68.74
48874;BME280;66155;46.204;5.220;2023-05-02T08:22:48;99130.09;;;12.97;68.26
48874;BME280;66155;46.204;5.220;2023-05-02T08:27:49;99136.28;;;13.23;68.63
48874;BME280;66155;46.204;5.220;2023-05-02T08:32:49;99132.13;;;13.27;67.63
48874;BME280;66155;46.204;5.220;2023-05-02T08:37:50;99123.50;;;13.26;67.96
48874;BME280;66155;46.204;5.220;2023-05-02T08:42:50;99118.25;;;13.26;68.00
48874;BME280;66155;46.204;5.220;2023-05-02T08:47:52;99117.31;;;13.38;67.54
48874;BME280;66155;46.204;5.220;2023-05-02T08:52:53;99139.28;;;13.37;67.72
48874;BME280;66155;46.204;5.220;2023-05-02T08:57:56;99130.09;;;13.34;68.27
48874;BME280;66155;46.204;5.220;2023-05-02T09:03:20;99118.94;;;13.49;68.13
48874;BME280;66155;46.204;5.220;2023-05-02T09:08:24;99122.63;;;13.53;67.27
48874;BME280;66155;46.204;5.220;2023-05-02T09:14:12;99114.22;;;13.51;67.67
48874;BME280;66155;46.204;5.220;2023-05-02T09:19:22;99114.53;;;13.60;67.33
48874;BME280;66155;46.204;5.220;2023-05-02T09:24:24;99117.72;;;13.72;67.94
48874;BME280;66155;46.204;5.220;2023-05-02T09:29:26;99122.97;;;13.72;67.29
48874;BME280;66155;46.204;5.220;2023-05-02T09:34:27;99126.19;;;14.00;67.10
48874;BME280;66155;46.204;5.220;2023-05-02T09:39:27;99115.47;;;14.06;65.91
48874;BME280;66155;46.204;5.220;2023-05-02T09:44:35;99101.63;;;14.16;65.86
48874;BME280;66155;46.204;5.220;2023-05-02T09:49:41;99095.63;;;14.41;65.84
48874;BME280;66155;46.204;5.220;2023-05-02T09:54:44;99103.78;;;14.60;65.61
48874;BME280;66155;46.204;5.220;2023-05-02T09:59:54;99103.25;;;14.58;64.71
48874;BME280;66155;46.204;5.220;2023-05-02T10:04:55;99093.00;;;14.67;65.00
48874;BME280;66155;46.204;5.220;2023-05-02T10:09:59;99096.94;;;14.90;64.54
48874;BME280;66155;46.204;5.220;2023-05-02T10:15:03;99102.19;;;14.90;63.83
48874;BME280;66155;46.204;5.220;2023-05-02T10:20:04;99109.53;;;14.98;64.04
48874;BME280;66155;46.204;5.220;2023-05-02T10:25:06;99105.81;;;15.20;62.83
48874;BME280;66155;46.204;5.220;2023-05-02T10:30:07;99106.34;;;15.17;63.21
48874;BME280;66155;46.204;5.220;2023-05-02T10:35:09;99091.59;;;15.31;62.20
48874;BME280;66155;46.204;5.220;2023-05-02T10:40:12;99089.94;;;15.51;60.98
48874;BME280;66155;46.204;5.220;2023-05-02T10:45:33;99095.66;;;15.68;61.05
48874;BME280;66155;46.204;5.220;2023-05-02T10:56:07;99076.47;;;15.83;59.57
48874;BME280;66155;46.204;5.220;2023-05-02T11:01:30;99076.59;;;16.02;57.84
48874;BME280;66155;46.204;5.220;2023-05-02T11:06:35;99077.13;;;16.04;57.70
48874;BME280;66155;46.204;5.220;2023-05-02T11:11:44;99069.63;;;16.22;57.12
48874;BME280;66155;46.204;5.220;2023-05-02T11:42:53;99061.34;;;17.02;54.35
48874;BME280;66155;46.204;5.220;2023-05-02T11:47:56;99061.16;;;17.18;53.76
48874;BME280;66155;46.204;5.220;2023-05-02T11:52:57;99048.97;;;17.27;52.67
48874;BME280;66155;46.204;5.220;2023-05-02T11:57:57;99059.59;;;17.41;52.19
48874;BME280;66155;46.204;5.220;2023-05-02T12:02:58;99050.00;;;17.69;52.37
48874;BME280;66155;46.204;5.220;2023-05-02T12:07:58;99060.34;;;17.65;52.27
48874;BME280;66155;46.204;5.220;2023-05-02T12:13:04;99055.72;;;17.76;50.44
48874;BME280;66155;46.204;5.220;2023-05-02T12:18:06;99045.59;;;17.83;49.98
48874;BME280;66155;46.204;5.220;2023-05-02T12:23:07;99064.66;;;17.99;50.15
48874;BME280;66155;46.204;5.220;2023-05-02T12:28:09;99050.34;;;18.38;50.18
48874;BME280;66155;46.204;5.220;2023-05-02T12:33:10;99043.03;;;18.35;48.75
48874;BME280;66155;46.204;5.220;2023-05-02T12:43:12;99050.53;;;18.42;48.29
48874;BME280;66155;46.204;5.220;2023-05-02T12:48:20;99042.66;;;18.56;47.60
48874;BME280;66155;46.204;5.220;2023-05-02T12:53:41;99044.81;;;18.87;47.39
48874;BME280;66155;46.204;5.220;2023-05-02T12:58:44;99055.16;;;18.83;45.68
48874;BME280;66155;46.204;5.220;2023-05-02T13:03:45;99044.03;;;19.00;45.98
48874;BME280;66155;46.204;5.220;2023-05-02T13:08:45;99052.25;;;19.12;45.88
48874;BME280;66155;46.204;5.220;2023-05-02T13:13:46;99047.44;;;19.14;45.00
48874;BME280;66155;46.204;5.220;2023-05-02T13:18:46;99049.31;;;19.14;44.61
48874;BME280;66155;46.204;5.220;2023-05-02T13:23:47;99048.03;;;19.25;44.31
48874;BME280;66155;46.204;5.220;2023-05-02T13:28:49;99021.41;;;19.49;44.47
48874;BME280;66155;46.204;5.220;2023-05-02T13:33:50;99028.09;;;19.69;43.43
48874;BME280;66155;46.204;5.220;2023-05-02T13:38:50;99021.41;;;19.86;42.89
48874;BME280;66155;46.204;5.220;2023-05-02T13:43:51;99020.03;;;20.11;42.07
48874;BME280;66155;46.204;5.220;2023-05-02T13:48:51;99006.44;;;20.04;41.93
48874;BME280;66155;46.204;5.220;2023-05-02T13:53:52;99008.56;;;20.16;41.67
48874;BME280;66155;46.204;5.220;2023-05-02T13:58:52;99007.25;;;20.36;42.12
48874;BME280;66155;46.204;5.220;2023-05-02T14:03:53;99012.13;;;20.42;41.25
48874;BME280;66155;46.204;5.220;2023-05-02T14:08:53;98998.28;;;20.45;40.84
48874;BME280;66155;46.204;5.220;2023-05-02T14:13:54;99004.81;;;20.70;39.96
48874;BME280;66155;46.204;5.220;2023-05-02T14:18:57;99000.50;;;20.83;39.06
48874;BME280;66155;46.204;5.220;2023-05-02T14:23:58;99003.03;;;20.97;39.25
48874;BME280;66155;46.204;5.220;2023-05-02T14:28:59;98988.22;;;20.87;39.06
48874;BME280;66155;46.204;5.220;2023-05-02T14:34:00;98999.75;;;20.92;38.33
48874;BME280;66155;46.204;5.220;2023-05-02T14:39:00;98999.91;;;20.95;38.28
48874;BME280;66155;46.204;5.220;2023-05-02T14:44:01;99003.66;;;21.03;37.93
48874;BME280;66155;46.204;5.220;2023-05-02T14:49:01;98997.34;;;21.39;37.93
48874;BME280;66155;46.204;5.220;2023-05-02T14:54:03;99005.78;;;21.41;37.60
48874;BME280;66155;46.204;5.220;2023-05-02T14:59:03;98989.28;;;21.61;36.82
48874;BME280;66155;46.204;5.220;2023-05-02T15:04:04;98998.97;;;21.83;36.26
48874;BME280;66155;46.204;5.220;2023-05-02T15:09:04;99009.91;;;22.94;35.58
48874;BME280;66155;46.204;5.220;2023-05-02T15:14:05;99000.69;;;26.38;28.92
48874;BME280;66155;46.204;5.220;2023-05-02T15:19:05;98984.59;;;29.49;25.95
48874;BME280;66155;46.204;5.220;2023-05-02T15:24:06;98988.28;;;31.05;23.68
48874;BME280;66155;46.204;5.220;2023-05-02T15:29:06;98990.38;;;30.74;22.58
48874;BME280;66155;46.204;5.220;2023-05-02T15:34:07;98984.97;;;30.67;23.05
48874;BME280;66155;46.204;5.220;2023-05-02T15:39:07;99002.47;;;28.54;25.06
48874;BME280;66155;46.204;5.220;2023-05-02T15:44:08;98985.88;;;29.25;24.29
48874;BME280;66155;46.204;5.220;2023-05-02T15:49:08;98985.28;;;30.58;22.92
48874;BME280;66155;46.204;5.220;2023-05-02T15:54:09;98983.59;;;31.93;21.72
48874;BME280;66155;46.204;5.220;2023-05-02T15:59:09;98971.25;;;31.85;20.98
48874;BME280;66155;46.204;5.220;2023-05-02T16:04:10;98970.94;;;32.15;20.22
48874;BME280;66155;46.204;5.220;2023-05-02T16:09:10;98961.63;;;32.85;20.39
48874;BME280;66155;46.204;5.220;2023-05-02T16:14:12;98967.44;;;32.58;20.06
48874;BME280;66155;46.204;5.220;2023-05-02T16:19:12;98974.41;;;32.30;20.90
48874;BME280;66155;46.204;5.220;2023-05-02T16:24:12;98989.75;;;31.97;21.03
48874;BME280;66155;46.204;5.220;2023-05-02T16:29:13;98978.56;;;33.00;20.63
48874;BME280;66155;46.204;5.220;2023-05-02T16:34:13;98973.88;;;33.07;19.97
48874;BME280;66155;46.204;5.220;2023-05-02T16:39:14;98968.22;;;32.55;20.27
48874;BME280;66155;46.204;5.220;2023-05-02T16:44:15;98987.28;;;31.38;21.04
48874;BME280;66155;46.204;5.220;2023-05-02T16:49:15;98990.06;;;31.56;21.26
48874;BME280;66155;46.204;5.220;2023-05-02T16:54:16;98994.94;;;31.25;21.24
48874;BME280;66155;46.204;5.220;2023-05-02T16:59:17;98993.84;;;31.48;21.12
48874;BME280;66155;46.204;5.220;2023-05-02T17:04:17;98993.03;;;31.37;21.67
48874;BME280;66155;46.204;5.220;2023-05-02T17:09:18;98991.00;;;31.12;22.28
48874;BME280;66155;46.204;5.220;2023-05-02T17:14:18;98985.75;;;30.71;22.61
48874;BME280;66155;46.204;5.220;2023-05-02T17:19:19;98987.34;;;29.90;22.98
48874;BME280;66155;46.204;5.220;2023-05-02T17:24:19;98990.28;;;29.44;23.26
48874;BME280;66155;46.204;5.220;2023-05-02T17:29:20;98989.22;;;28.65;23.95
48874;BME280;66155;46.204;5.220;2023-05-02T17:34:21;99001.16;;;28.01;24.77
48874;BME280;66155;46.204;5.220;2023-05-02T17:39:25;99012.31;;;27.84;25.35
48874;BME280;66155;46.204;5.220;2023-05-02T17:44:26;98996.41;;;27.52;25.65
48874;BME280;66155;46.204;5.220;2023-05-02T17:49:27;99002.25;;;26.55;26.64
48874;BME280;66155;46.204;5.220;2023-05-02T17:54:27;99004.75;;;26.48;27.10
48874;BME280;66155;46.204;5.220;2023-05-02T17:59:27;99007.25;;;25.28;28.75
48874;BME280;66155;46.204;5.220;2023-05-02T18:04:28;99013.19;;;24.26;30.43
48874;BME280;66155;46.204;5.220;2023-05-02T18:09:29;99027.31;;;23.42;31.31
48874;BME280;66155;46.204;5.220;2023-05-02T18:14:29;99025.41;;;22.92;32.36
48874;BME280;66155;46.204;5.220;2023-05-02T18:19:30;99013.38;;;22.47;33.08
48874;BME280;66155;46.204;5.220;2023-05-02T18:24:31;99025.59;;;22.05;33.69
48874;BME280;66155;46.204;5.220;2023-05-02T18:29:34;99035.75;;;21.50;34.59
48874;BME280;66155;46.204;5.220;2023-05-02T18:34:35;99028.84;;;20.83;35.92
48874;BME280;66155;46.204;5.220;2023-05-02T18:39:35;99042.00;;;20.65;36.59
48874;BME280;66155;46.204;5.220;2023-05-02T18:44:36;99042.94;;;20.16;36.64
48874;BME280;66155;46.204;5.220;2023-05-02T18:49:36;99049.16;;;19.74;38.00
48874;BME280;66155;46.204;5.220;2023-05-02T18:54:37;99050.56;;;19.30;38.26
48874;BME280;66155;46.204;5.220;2023-05-02T18:59:37;99054.59;;;19.00;38.94
48874;BME280;66155;46.204;5.220;2023-05-02T19:04:38;99046.22;;;18.79;39.00
48874;BME280;66155;46.204;5.220;2023-05-02T19:09:39;99061.44;;;18.54;40.51
48874;BME280;66155;46.204;5.220;2023-05-02T19:14:39;99071.50;;;18.00;41.77
48874;BME280;66155;46.204;5.220;2023-05-02T19:19:40;99075.94;;;17.62;42.53
48874;BME280;66155;46.204;5.220;2023-05-02T19:24:41;99075.91;;;17.43;43.73
48874;BME280;66155;46.204;5.220;2023-05-02T19:29:41;99074.63;;;17.16;44.53
48874;BME280;66155;46.204;5.220;2023-05-02T19:34:42;99073.22;;;17.00;44.20
48874;BME280;66155;46.204;5.220;2023-05-02T19:39:42;99073.63;;;16.83;45.13
48874;BME280;66155;46.204;5.220;2023-05-02T19:44:43;99076.63;;;16.71;45.54
48874;BME280;66155;46.204;5.220;2023-05-02T19:49:43;99082.81;;;16.56;46.40
48874;BME280;66155;46.204;5.220;2023-05-02T19:54:43;99078.66;;;16.45;46.94
48874;BME280;66155;46.204;5.220;2023-05-02T19:59:44;99081.09;;;16.36;47.36
48874;BME280;66155;46.204;5.220;2023-05-02T20:04:44;99089.34;;;16.24;47.08
48874;BME280;66155;46.204;5.220;2023-05-02T20:09:45;99087.31;;;16.11;47.74
48874;BME280;66155;46.204;5.220;2023-05-02T20:14:45;99082.94;;;16.01;47.61
48874;BME280;66155;46.204;5.220;2023-05-02T20:19:46;99087.97;;;15.92;48.22
48874;BME280;66155;46.204;5.220;2023-05-02T20:24:46;99104.03;;;15.81;48.27
48874;BME280;66155;46.204;5.220;2023-05-02T20:29:47;99108.28;;;15.66;48.61
48874;BME280;66155;46.204;5.220;2023-05-02T20:34:47;99115.66;;;15.59;48.89
48874;BME280;66155;46.204;5.220;2023-05-02T20:39:47;99115.16;;;15.52;48.99
48874;BME280;66155;46.204;5.220;2023-05-02T20:44:59;99124.13;;;15.46;49.13
48874;BME280;66155;46.204;5.220;2023-05-02T20:50:00;99106.28;;;15.37;49.00
48874;BME280;66155;46.204;5.220;2023-05-02T20:55:00;99113.41;;;15.27;49.51
48874;BME280;66155;46.204;5.220;2023-05-02T21:00:01;99109.25;;;15.15;49.56
48874;BME280;66155;46.204;5.220;2023-05-02T21:05:02;99111.06;;;15.10;49.28
48874;BME280;66155;46.204;5.220;2023-05-02T21:10:03;99107.94;;;15.02;50.17
48874;BME280;66155;46.204;5.220;2023-05-02T21:15:05;99114.25;;;14.91;50.09
48874;BME280;66155;46.204;5.220;2023-05-02T21:20:06;99114.25;;;14.86;49.98
48874;BME280;66155;46.204;5.220;2023-05-02T21:25:09;99120.56;;;14.80;50.39
48874;BME280;66155;46.204;5.220;2023-05-02T21:30:10;99112.69;;;14.70;50.38
48874;BME280;66155;46.204;5.220;2023-05-02T21:35:11;99114.81;;;14.62;50.34
48874;BME280;66155;46.204;5.220;2023-05-02T21:40:11;99118.16;;;14.53;50.56
48874;BME280;66155;46.204;5.220;2023-05-02T21:45:12;99103.75;;;14.45;50.83
48874;BME280;66155;46.204;5.220;2023-05-02T21:50:12;99102.94;;;14.29;51.45
48874;BME280;66155;46.204;5.220;2023-05-02T21:55:13;99098.75;;;14.18;50.96
48874;BME280;66155;46.204;5.220;2023-05-02T22:00:13;99099.75;;;14.12;51.49
48874;BME280;66155;46.204;5.220;2023-05-02T22:05:14;99095.56;;;14.00;51.66
48874;BME280;66155;46.204;5.220;2023-05-02T22:10:14;99089.50;;;13.90;51.99
48874;BME280;66155;46.204;5.220;2023-05-02T22:15:15;99098.38;;;13.83;52.15
48874;BME280;66155;46.204;5.220;2023-05-02T22:20:15;99089.19;;;13.71;52.71
48874;BME280;66155;46.204;5.220;2023-05-02T22:25:16;99095.44;;;13.59;52.69
48874;BME280;66155;46.204;5.220;2023-05-02T22:30:16;99089.34;;;13.43;53.85
48874;BME280;66155;46.204;5.220;2023-05-02T22:35:17;99076.19;;;13.33;53.49
48874;BME280;66155;46.204;5.220;2023-05-02T22:40:18;99077.97;;;13.27;53.28
48874;BME280;66155;46.204;5.220;2023-05-02T22:45:18;99079.22;;;13.20;54.00
48874;BME280;66155;46.204;5.220;2023-05-02T22:50:19;99086.25;;;13.14;53.88
48874;BME280;66155;46.204;5.220;2023-05-02T22:55:20;99082.31;;;13.06;54.09
48874;BME280;66155;46.204;5.220;2023-05-02T23:00:21;99079.63;;;12.96;55.03
48874;BME280;66155;46.204;5.220;2023-05-02T23:05:22;99092.69;;;12.96;54.39
48874;BME280;66155;46.204;5.220;2023-05-02T23:10:23;99077.19;;;12.84;54.88
48874;BME280;66155;46.204;5.220;2023-05-02T23:15:23;99077.94;;;12.80;54.93
48874;BME280;66155;46.204;5.220;2023-05-02T23:20:23;99083.38;;;12.73;55.58
48874;BME280;66155;46.204;5.220;2023-05-02T23:25:25;99082.56;;;12.67;55.69
48874;BME280;66155;46.204;5.220;2023-05-02T23:30:28;99080.16;;;12.61;55.70
48874;BME280;66155;46.204;5.220;2023-05-02T23:35:30;99068.59;;;12.51;56.22
48874;BME280;66155;46.204;5.220;2023-05-02T23:40:31;99081.66;;;12.51;55.50
48874;BME280;66155;46.204;5.220;2023-05-02T23:45:31;99074.50;;;12.42;56.46
48874;BME280;66155;46.204;5.220;2023-05-02T23:50:32;99079.44;;;12.38;56.46
48874;BME280;66155;46.204;5.220;2023-05-02T23:55:32;99068.91;;;12.28;57.25
